Accueil
METAR-TAF:

METAR-TAF

Aéroports :

Aérodrome de Koné

Koné, Nouvelle-Calédonie

latitude: 21-03-12S, longitude: 164-50-18E, altitude: 7 m

METAR: absent

Heure: 13:27 (02:27 UTC)

Prévision

Le bulletin a été fait il y a 3 heures et 27 minutes, à 23:00 UTC
Prévision valable du 23 à 00 UTC au 23 à 24 UTC
Vent 8 kt de est/nord-est
Visibilité 10 km ou plus
Nuages épars à une hauteur de 4000 ft
Nuages fragmentés à une hauteur de 13000 ft
Probabilité 30% :
Temporairement
du 23 à 02 UTC au 23 à 06 UTC
Vent 15 kt de est/nord-est avec des rafales jusqu'à 25 kt
Temporairement
du 23 à 03 UTC au 23 à 20 UTC
pluie
Probabilité 30% :
Temporairement
du 23 à 14 UTC au 23 à 18 UTC
Visibilité: 4500 m
pluie,

TAF: NWWD 222300Z 2300/2324 07008KT 9999 SCT040 BKN130 PROB30 TEMPO 2302/2306 06015G25KT TEMPO 2303/2320 RA PROB30 TEMPO 2314/2318 4500 RA

Observations et prévisions météorologiques de plus de 4000 aéroports (messages METAR et TAF).

Les stations disponibles sont représentées par des disques jaunes et rouges sur la carte.

Passer la souris dessus pour voir le nom de la station.

Cliquer dessus pour voir les observations et prévisions météorologiques.

Pour changer de carte: cliquez sur les boutons verts avec une croix noire pour zoomer, sur le bouton vert avec un tiret pour effectuer un zoom arrière, ou sur les flèches vertes pour les cartes adjacentes.


METAR-TAF: